Flight Track Log - Related Links

Times and Time Zones

All times are in EDT time to prevent confusion due to time zone crossing. See the CES2828 flight status page for this flight to view local times or setup timezone preferences in your user account.

Time Position Orientation Groundspeed Altitude Reporting Facility
EDT Latitude Longitude Course Direction KTS MPH feet Rate Location/Type
Sat 12:27:00 PM 26.4442 111.5637 48° Northeast  Level Estimated
Sat 12:28:00 PM 26.5118 111.6493 49° Northeast  Level Estimated
Sat 12:29:00 PM 26.5794 111.7350 49° Northeast  Level Estimated
Sat 12:30:00 PM 26.6469 111.8209 49° Northeast  Level Estimated
Sat 12:31:00 PM 26.7144 111.9068 49° Northeast  Level Estimated
Sat 12:32:00 PM 26.7818 111.9928 49° Northeast  Level Estimated
Sat 12:33:00 PM 26.8492 112.0790 49° Northeast  Level Estimated
Sat 12:34:00 PM 26.9165 112.1652 49° Northeast  Level Estimated
Sat 12:35:00 PM 26.9838 112.2516 49° Northeast  Level Estimated
Sat 12:36:00 PM 27.0511 112.3380 49° Northeast  Level Estimated
Sat 12:37:00 PM 27.1182 112.4246 49° Northeast  Level Estimated
Sat 12:38:00 PM 27.1853 112.5112 49° Northeast  Level Estimated
Sat 12:39:00 PM 27.2524 112.5980 49° Northeast  Level Estimated
Sat 12:40:00 PM 27.3194 112.6848 49° Northeast  Level Estimated
Sat 12:41:00 PM 27.3864 112.7718 49° Northeast  Level Estimated
Sat 12:42:00 PM 27.4533 112.8589 49° Northeast  Level Estimated
Sat 12:43:00 PM 27.5201 112.9461 49° Northeast  Level Estimated
Sat 12:44:00 PM 27.5869 113.0333 49° Northeast  Level Estimated
Sat 12:45:00 PM 27.6537 113.1207 49° Northeast  Level Estimated
Sat 12:46:00 PM 27.7204 113.2082 49° Northeast  Level Estimated
Sat 12:47:00 PM 27.7870 113.2958 49° Northeast  Level Estimated
Sat 12:48:00 PM 27.8536 113.3836 49° Northeast  Level Estimated
Sat 12:49:00 PM 27.9201 113.4714 49° Northeast  Level Estimated
Sat 12:50:00 PM 27.9865 113.5593 49° Northeast  Level Estimated
Sat 12:51:00 PM 28.0530 113.6473 49° Northeast  Level Estimated
Sat 12:52:00 PM 28.1193 113.7355 50° Northeast  Level Estimated
Sat 12:53:00 PM 28.1856 113.8237 50° Northeast  Level Estimated
Sat 12:54:00 PM 28.2519 113.9121 50° Northeast  Level Estimated
Sat 12:55:00 PM 28.3180 114.0006 50° Northeast  Level Estimated
Sat 12:56:00 PM 28.3842 114.0891 50° Northeast  Level Estimated
Sat 12:57:00 PM 28.4502 114.1778 50° Northeast  Level Estimated
Sat 12:58:00 PM 28.5162 114.2667 50° Northeast  Level Estimated
Sat 12:59:00 PM 28.5822 114.3556 50° Northeast  Level Estimated
Sat 01:00:00 PM 28.6481 114.4446 50° Northeast  Level Estimated
Sat 01:01:00 PM 28.7139 114.5338 50° Northeast  Level Estimated
Sat 01:02:00 PM 28.7797 114.6230 50° Northeast  Level Estimated
Sat 01:03:00 PM 28.8454 114.7124 50° Northeast  Level Estimated
Sat 01:04:00 PM 28.9111 114.8018 50° Northeast  Level Estimated
Sat 01:05:00 PM 28.9767 114.8914 50° Northeast  Level Estimated
Sat 01:06:00 PM 29.0422 114.9811 50° Northeast  Level Estimated
Sat 01:07:00 PM 29.1077 115.0710 50° Northeast  Level Estimated
Sat 01:08:00 PM 29.1731 115.1609 50° Northeast  Level Estimated
Sat 01:09:00 PM 29.2385 115.2510 50° Northeast  Level Estimated
Sat 01:10:00 PM 29.3038 115.3411 50° Northeast  Level Estimated
Sat 01:11:00 PM 29.3690 115.4314 50° Northeast  Level Estimated
Sat 01:12:00 PM 29.4342 115.5218 50° Northeast  Level Estimated
Sat 01:13:00 PM 29.4993 115.6123 50° Northeast  Level Estimated
Sat 01:14:00 PM 29.5644 115.7029 50° Northeast  Level Estimated
Sat 01:15:00 PM 29.6294 115.7937 50° Northeast  Level Estimated
Sat 01:16:00 PM 29.6943 115.8845 51° Northeast  Level Estimated
Sat 01:17:00 PM 29.7592 115.9755 51° Northeast  Level Estimated
Sat 01:18:00 PM 29.8240 116.0666 51° Northeast  Level Estimated
Sat 01:19:00 PM 29.8887 116.1578 51° Northeast  Level Estimated
Sat 01:20:00 PM 29.9534 116.2491 51° Northeast  Level Estimated
Sat 01:21:00 PM 30.0180 116.3406 51° Northeast  Level Estimated
Sat 01:22:00 PM 30.0826 116.4322 51° Northeast  Level Estimated
Sat 01:23:00 PM 30.1471 116.5238 51° Northeast  Level Estimated
Sat 01:24:00 PM 30.2115 116.6157 51° Northeast  Level Estimated
Sat 01:25:00 PM 30.2759 116.7076 51° Northeast  Level Estimated
Sat 01:26:00 PM 30.3402 116.7996 51° Northeast  Level Estimated
Sat 01:27:00 PM 30.4044 116.8918 51° Northeast  Level Estimated
Sat 01:28:00 PM 30.4686 116.9841 51° Northeast  Level Estimated
Sat 01:29:00 PM 30.5327 117.0765 51° Northeast  Level Estimated
Sat 01:30:00 PM 30.5968 117.1691 51° Northeast  Level Estimated
Sat 01:31:00 PM 30.6607 117.2617 51° Northeast  Level Estimated
Sat 01:32:00 PM 30.7246 117.3545 51° Northeast  Level Estimated
Sat 01:33:00 PM 30.7885 117.4474 51° Northeast  Level Estimated
Sat 01:34:00 PM 30.8628 117.5558 51° Northeast  Level Estimated
Sat 01:35:00 PM 30.9370 117.6643 51° Northeast  Level Estimated
Sat 01:36:00 PM 31.0110 117.7730 51° Northeast  Level Estimated
Sat 01:37:00 PM 31.0850 117.8819 52° Northeast  Level Estimated
Sat 01:38:00 PM 31.1590 117.9909 52° Northeast  Level Estimated
Sat 01:39:00 PM 31.2328 118.1001 52° Northeast  Level Estimated
Sat 01:40:00 PM 31.3065 118.2095 52° Northeast  Level Estimated
Sat 01:41:00 PM 31.3801 118.3190 52° Northeast  Level Estimated
Sat 01:42:00 PM 31.4537 118.4288 52° Northeast  Level Estimated
Sat 01:43:00 PM 31.5271 118.5387 52° Northeast  Level Estimated
Sat 01:44:00 PM 31.6005 118.6487 52° Northeast  Level Estimated
Sat 01:45:00 PM 31.6737 118.7590 52° Northeast  Level Estimated
Sat 01:46:00 PM 31.7421 118.8620 52° Northeast  Level Estimated
Sat 01:47:00 PM 31.7421 118.8620 270° West  Level Estimated
Sat 01:48:00 PM 31.7421 118.8620 270° West  Level Estimated
Sat 01:49:00 PM 31.7421 118.8620 270° West  Level Estimated
Sat 01:50:00 PM 31.7421 118.8620 270° West  Level Estimated

Login

Don't have an account? Register now (free) for customized features, flight alerts, and more!